Time;durP1;ratioP1;P1;durP2;ratioP2;P2;SDS_P1;SDS_P2;PMS_P1;PMS_P2;Temp;Humidity;BMP_temperature;BMP_pressure;BME280_temperature;BME280_humidity;BME280_pressure;Samples;Min_cycle;Max_cycle;Signal;HPM_P1;HPM_P2
2023/03/02 00:08:55;;;;;;;180.60;119.00;;;;;;;-5.35;76.26;100392.34;439951;1259;143546;-63
2023/03/02 00:19:01;;;;;;;191.60;127.60;;;;;;;-5.43;76.37;100390.52;445066;1259;143105;-63
2023/03/02 00:29:07;;;;;;;201.30;130.80;;;;;;;-5.40;76.95;100389.37;431077;1263;142356;-62
2023/03/02 00:39:12;;;;;;;175.50;118.90;;;;;;;-5.39;77.22;100376.41;441550;1259;142882;-63
2023/03/02 00:49:18;;;;;;;164.90;112.90;;;;;;;-5.49;77.04;100379.00;447447;1259;144233;-62
2023/03/02 00:59:26;;;;;;;166.50;113.80;;;;;;;-5.57;77.02;100372.73;448251;1258;143317;-62
2023/03/02 01:09:33;;;;;;;188.80;127.10;;;;;;;-5.65;76.95;100368.02;448249;1259;143822;-62
2023/03/02 01:19:39;;;;;;;178.80;123.60;;;;;;;-5.69;77.40;100351.76;438051;1261;142195;-61
2023/03/02 01:29:45;;;;;;;168.20;119.10;;;;;;;-5.75;77.50;100344.66;431720;1260;142890;-63
2023/03/02 01:39:51;;;;;;;181.20;121.00;;;;;;;-5.84;77.93;100335.67;447334;1261;143081;-63
2023/03/02 01:49:59;;;;;;;182.60;125.40;;;;;;;-5.88;78.21;100324.70;448229;1259;143379;-63
2023/03/02 02:00:11;;;;;;;179.30;119.10;;;;;;;-5.81;78.66;100309.47;448241;1259;144205;-64
2023/03/02 02:10:17;;;;;;;163.50;112.70;;;;;;;-5.73;79.18;100296.77;447448;1259;144139;-63
2023/03/02 02:20:28;;;;;;;149.80;108.90;;;;;;;-5.76;79.03;100293.84;448210;1259;187517;-62
2023/03/02 02:30:35;;;;;;;170.20;114.80;;;;;;;-5.84;79.07;100282.13;448104;1258;193147;-64
2023/03/02 02:40:50;;;;;;;161.40;114.90;;;;;;;-5.88;79.03;100276.27;443249;1259;143755;-63
2023/03/02 02:50:59;;;;;;;159.10;109.30;;;;;;;-6.03;78.96;100268.41;448273;1259;143401;-64
2023/03/02 03:01:06;;;;;;;198.00;136.10;;;;;;;-6.17;78.99;100266.49;447452;1259;145027;-63
2023/03/02 03:11:14;;;;;;;193.50;125.20;;;;;;;-6.21;79.37;100264.74;448280;1259;144158;-63
2023/03/02 03:21:19;;;;;;;187.90;127.90;;;;;;;-6.22;79.73;100265.41;448306;1259;143858;-63
2023/03/02 03:31:26;;;;;;;174.90;121.30;;;;;;;-6.24;79.75;100271.52;447533;1259;144398;-63
2023/03/02 03:41:32;;;;;;;193.10;126.80;;;;;;;-6.31;79.83;100261.34;448252;1259;143090;-63
2023/03/02 03:51:38;;;;;;;192.10;128.20;;;;;;;-6.41;79.72;100262.55;448228;1261;142595;-63
2023/03/02 04:01:47;;;;;;;186.40;126.60;;;;;;;-6.45;79.97;100259.77;447713;1259;198859;-64
2023/03/02 04:11:55;;;;;;;175.20;120.30;;;;;;;-6.45;80.21;100262.16;448243;1258;143529;-63
2023/03/02 04:22:02;;;;;;;181.60;123.40;;;;;;;-6.47;80.43;100254.27;447531;1261;146003;-64
2023/03/02 04:32:09;;;;;;;195.20;127.80;;;;;;;-6.48;80.75;100246.60;449339;1254;187785;-63
2023/03/02 04:42:14;;;;;;;186.30;126.70;;;;;;;-6.53;80.80;100249.59;439870;1254;143539;-64
2023/03/02 04:52:20;;;;;;;188.90;126.90;;;;;;;-6.59;80.60;100252.55;448572;1254;142967;-63
2023/03/02 05:02:26;;;;;;;183.20;121.70;;;;;;;-6.62;80.74;100253.70;449315;1254;143303;-63
2023/03/02 05:12:56;;;;;;;200.00;127.20;;;;;;;-6.68;80.58;100256.15;449364;1254;142612;-63
2023/03/02 05:23:00;;;;;;;181.80;123.20;;;;;;;-6.73;80.63;100267.83;448808;1254;208970;-63
2023/03/02 05:33:06;;;;;;;183.20;127.40;;;;;;;-6.70;80.90;100269.58;449308;1254;143413;-63
2023/03/02 05:43:14;;;;;;;192.10;128.00;;;;;;;-6.57;81.17;100279.34;444519;1254;142574;-63
2023/03/02 05:53:20;;;;;;;184.50;127.90;;;;;;;-6.15;81.91;100287.31;449389;1254;143726;-67
2023/03/02 06:03:26;;;;;;;180.80;120.30;;;;;;;-5.45;82.45;100281.94;449362;1254;144567;-63
2023/03/02 06:13:32;;;;;;;177.40;117.60;;;;;;;-4.56;81.40;100291.27;448646;1254;142347;-63
2023/03/02 06:23:37;;;;;;;164.30;110.50;;;;;;;-4.02;80.69;100295.98;449375;1254;142899;-63
2023/03/02 06:33:43;;;;;;;207.10;136.10;;;;;;;-3.62;80.56;100307.88;449164;1254;143156;-62
2023/03/02 06:43:49;;;;;;;181.60;120.50;;;;;;;-3.29;80.18;100312.83;444614;1254;154481;-63
2023/03/02 06:53:55;;;;;;;155.30;97.20;;;;;;;-2.89;80.23;100309.89;449454;1254;143134;-63
2023/03/02 07:04:00;;;;;;;175.20;119.30;;;;;;;-2.36;80.12;100313.07;448678;1254;142779;-63
2023/03/02 07:14:06;;;;;;;164.90;109.60;;;;;;;-1.88;79.74;100314.60;449461;1254;143383;-63
2023/03/02 07:24:12;;;;;;;165.90;108.00;;;;;;;-1.45;79.13;100315.20;449506;1254;143199;-63
2023/03/02 07:34:17;;;;;;;169.80;106.60;;;;;;;-1.08;78.52;100313.35;448688;1254;143333;-63
2023/03/02 07:44:23;;;;;;;180.60;112.10;;;;;;;-0.68;78.00;100305.75;446161;1254;143879;-63
2023/03/02 07:54:29;;;;;;;198.50;125.00;;;;;;;-0.37;77.65;100300.20;449421;1254;200246;-63
2023/03/02 08:04:37;;;;;;;130.20;84.90;;;;;;;0.03;77.26;100293.85;443121;1254;143351;-64
2023/03/02 08:14:42;;;;;;;154.40;99.30;;;;;;;0.61;76.61;100292.23;432113;1259;142710;-63
2023/03/02 08:24:50;;;;;;;144.30;94.20;;;;;;;1.31;75.78;100285.80;431507;1258;142471;-62
2023/03/02 08:34:56;;;;;;;124.30;79.50;;;;;;;2.08;75.03;100281.44;433420;1259;142490;-63
2023/03/02 08:45:02;;;;;;;90.60;60.20;;;;;;;2.78;74.18;100274.08;439341;1254;142573;-63
2023/03/02 08:55:11;;;;;;;80.90;54.70;;;;;;;3.66;73.56;100266.19;437741;1254;143235;-64
2023/03/02 09:05:17;;;;;;;81.30;55.20;;;;;;;5.35;71.75;100249.18;443562;1254;142498;-64
2023/03/02 09:15:22;;;;;;;64.60;49.90;;;;;;;8.19;69.17;100240.23;449327;1254;142015;-63
2023/03/02 09:25:28;;;;;;;69.00;49.20;;;;;;;10.69;65.54;100234.16;448802;1254;143002;-63
2023/03/02 09:35:34;;;;;;;64.10;47.40;;;;;;;11.48;61.65;100237.16;435629;1254;142911;-63
2023/03/02 09:45:56;;;;;;;55.20;44.00;;;;;;;10.14;60.57;100229.64;432455;1256;141960;-63
2023/03/02 09:56:03;;;;;;;59.70;43.60;;;;;;;9.20;60.43;100234.13;447586;1254;194413;-63
2023/03/02 10:06:10;;;;;;;57.10;43.00;;;;;;;8.71;60.29;100236.59;449460;1254;141487;-64
2023/03/02 10:16:24;;;;;;;57.30;41.20;;;;;;;8.39;60.23;100236.07;448730;1254;143203;-63
2023/03/02 10:26:39;;;;;;;65.10;43.70;;;;;;;8.22;60.63;100234.89;449523;1254;141247;-64
2023/03/02 10:36:46;;;;;;;61.40;43.10;;;;;;;8.25;60.34;100226.74;448700;1254;141311;-64
2023/03/02 10:46:52;;;;;;;57.90;41.50;;;;;;;7.80;60.10;100217.13;449480;1254;140946;-64
2023/03/02 10:57:00;;;;;;;62.40;45.50;;;;;;;7.75;60.55;100204.09;449566;1254;141380;-64
2023/03/02 11:07:11;;;;;;;;;;;;;;;7.77;60.54;100195.84;448770;1254;141992;-63
2023/03/02 11:17:32;;;;;;;64.20;46.60;;;;;;;7.83;60.34;100195.73;449706;1254;127765;-63
2023/03/02 11:27:43;;;;;;;67.80;47.60;;;;;;;7.48;60.63;100189.73;449451;1254;141763;-63
2023/03/02 11:37:53;;;;;;;68.00;48.00;;;;;;;7.38;60.65;100175.50;448969;1254;142659;-62
2023/03/02 11:48:04;;;;;;;64.20;43.90;;;;;;;7.55;60.73;100160.86;446816;1254;142693;-64
2023/03/02 11:58:17;;;;;;;69.80;47.00;;;;;;;7.65;60.62;100154.52;448713;1255;141960;-63
2023/03/02 12:08:36;;;;;;;61.20;43.90;;;;;;;7.51;60.39;100147.80;449462;1254;142338;-62
2023/03/02 12:18:47;;;;;;;70.80;49.90;;;;;;;7.30;60.33;100143.42;449426;1255;142385;-63
2023/03/02 12:29:02;;;;;;;63.00;43.50;;;;;;;7.22;60.45;100137.64;448895;1254;195774;-63
2023/03/02 12:39:24;;;;;;;49.60;32.90;;;;;;;6.90;60.66;100126.94;449260;1254;144725;-63
2023/03/02 12:49:44;;;;;;;44.70;31.20;;;;;;;6.76;60.81;100119.46;448682;1254;142206;-63
2023/03/02 12:59:55;;;;;;;49.00;32.70;;;;;;;6.45;60.98;100106.05;449055;1254;142849;-63
2023/03/02 13:10:03;;;;;;;48.40;33.80;;;;;;;6.33;61.48;100097.30;448723;1254;145726;-63
2023/03/02 13:20:14;;;;;;;53.40;38.40;;;;;;;6.31;61.60;100094.07;449397;1254;142358;-63
2023/03/02 13:30:25;;;;;;;64.00;40.30;;;;;;;6.18;62.22;100082.89;449435;1254;142234;-63
2023/03/02 13:40:43;;;;;;;59.80;40.40;;;;;;;6.05;62.58;100075.38;433868;1254;142805;-63
2023/03/02 13:50:58;;;;;;;58.40;39.20;;;;;;;5.72;63.16;100063.17;449415;1254;142267;-65
2023/03/02 14:01:05;;;;;;;56.90;38.00;;;;;;;5.54;63.50;100050.45;448498;1254;142444;-66
2023/03/02 14:11:13;;;;;;;63.20;42.40;;;;;;;5.45;63.65;100038.80;448850;1254;142219;-66
2023/03/02 14:21:21;;;;;;;67.40;44.10;;;;;;;5.13;64.30;100029.84;449318;1254;143470;-66
2023/03/02 14:31:27;;;;;;;66.20;42.50;;;;;;;4.91;64.97;100019.13;448545;1254;142830;-66
2023/03/02 14:41:34;;;;;;;71.60;47.60;;;;;;;4.65;65.48;100006.96;449281;1254;142020;-66
2023/03/02 14:52:04;;;;;;;62.60;40.20;;;;;;;4.37;66.35;100004.22;448551;1254;142619;-66
2023/03/02 15:02:11;;;;;;;66.40;43.10;;;;;;;4.17;66.84;99996.85;449312;1255;142108;-65
2023/03/02 15:12:29;;;;;;;72.90;44.60;;;;;;;3.94;67.47;99988.90;449254;1254;142125;-65
2023/03/02 15:22:35;;;;;;;65.00;43.80;;;;;;;3.69;68.12;99981.30;448541;1254;142298;-65
2023/03/02 15:32:41;;;;;;;66.90;42.80;;;;;;;3.41;68.74;99986.95;447814;1256;142002;-66
2023/03/02 15:42:47;;;;;;;67.00;42.60;;;;;;;3.05;69.53;99991.21;444235;1256;142689;-65
2023/03/02 15:52:53;;;;;;;67.90;43.70;;;;;;;2.87;70.29;99990.63;449220;1257;142769;-65
2023/03/02 16:02:58;;;;;;;72.60;40.40;;;;;;;2.68;70.80;99985.73;449239;1254;142920;-65
2023/03/02 16:13:06;;;;;;;66.00;40.30;;;;;;;2.49;71.46;99990.52;436586;1255;145283;-65
2023/03/02 16:23:12;;;;;;;61.80;35.70;;;;;;;2.30;71.94;99993.25;449062;1255;142867;-65
2023/03/02 16:33:19;;;;;;;58.40;36.00;;;;;;;2.16;72.51;99995.79;449203;1254;141537;-66
2023/03/02 16:43:25;;;;;;;56.80;34.80;;;;;;;2.08;72.69;99993.38;448452;1255;142213;-66
2023/03/02 16:53:31;;;;;;;61.20;38.00;;;;;;;2.00;73.10;99999.77;442125;1255;142203;-65
2023/03/02 17:03:37;;;;;;;51.70;30.50;;;;;;;1.89;73.36;100003.45;447347;1255;141529;-66
2023/03/02 17:13:43;;;;;;;43.80;27.50;;;;;;;1.79;73.62;100007.11;448427;1254;141732;-66
2023/03/02 17:23:48;;;;;;;52.40;29.20;;;;;;;1.76;73.83;100008.73;449199;1255;142642;-65
2023/03/02 17:33:55;;;;;;;53.10;32.90;;;;;;;1.72;74.12;100010.20;445845;1256;142554;-64
2023/03/02 17:44:01;;;;;;;53.70;31.10;;;;;;;1.68;74.28;100004.93;447425;1254;142812;-66
2023/03/02 17:54:06;;;;;;;;;;;;;;;1.63;74.54;100002.79;449117;1255;143555;-66
2023/03/02 18:04:12;;;;;;;56.80;34.20;;;;;;;1.60;74.60;100004.93;448762;1255;128996;-66
2023/03/02 18:14:20;;;;;;;54.80;33.40;;;;;;;1.53;74.80;99997.29;449192;1256;141522;-67
2023/03/02 18:24:26;;;;;;;49.40;31.80;;;;;;;1.48;74.99;99991.52;449242;1254;141543;-64
2023/03/02 18:34:32;;;;;;;50.20;29.80;;;;;;;1.46;74.99;99992.77;448429;1255;143020;-66
2023/03/02 18:44:38;;;;;;;54.80;31.70;;;;;;;1.40;74.98;99991.16;449179;1257;142292;-65
2023/03/02 18:54:45;;;;;;;56.60;34.50;;;;;;;1.35;75.14;99988.34;449121;1256;141249;-64
2023/03/02 19:04:51;;;;;;;60.50;35.60;;;;;;;1.34;75.10;99989.55;448917;1254;211378;-65
2023/03/02 19:14:58;;;;;;;50.80;31.00;;;;;;;1.33;75.15;99997.69;449203;1255;142428;-65
2023/03/02 19:25:04;;;;;;;49.40;29.30;;;;;;;1.33;75.32;99994.58;448436;1254;142049;-66
2023/03/02 19:35:13;;;;;;;52.80;30.90;;;;;;;1.33;75.28;99986.64;449203;1258;144020;-66
2023/03/02 19:45:21;;;;;;;47.70;28.40;;;;;;;1.31;75.49;99981.16;449268;1254;142943;-65
2023/03/02 19:55:28;;;;;;;50.90;32.50;;;;;;;1.15;75.19;99969.56;448433;1254;142504;-65
2023/03/02 20:05:33;;;;;;;55.90;34.30;;;;;;;0.65;75.31;99964.59;442898;1255;141493;-65
2023/03/02 20:15:43;;;;;;;77.00;43.20;;;;;;;0.10;75.74;99966.83;449226;1254;143484;-65
2023/03/02 20:25:49;;;;;;;55.70;33.90;;;;;;;-0.46;76.30;99963.80;448772;1254;141036;-65
2023/03/02 20:35:55;;;;;;;77.60;42.20;;;;;;;-0.93;77.10;99959.20;449225;1258;143486;-65
2023/03/02 20:46:02;;;;;;;81.50;43.70;;;;;;;-1.32;77.81;99960.45;448399;1256;142179;-66
2023/03/02 20:56:10;;;;;;;89.00;48.90;;;;;;;-1.77;78.05;99959.78;449279;1254;142363;-66
2023/03/02 21:06:15;;;;;;;90.60;54.00;;;;;;;-2.12;78.69;99954.70;449180;1254;143772;-66
2023/03/02 21:16:25;;;;;;;98.20;59.20;;;;;;;-2.40;79.15;99951.94;448419;1254;142651;-65
2023/03/02 21:26:30;;;;;;;95.20;55.00;;;;;;;-2.61;79.73;99941.75;440809;1254;142618;-65
2023/03/02 21:36:36;;;;;;;106.80;63.70;;;;;;;-2.85;80.15;99937.23;449191;1254;142233;-65
2023/03/02 21:46:42;;;;;;;94.30;56.10;;;;;;;-2.98;81.04;99931.77;448454;1254;142776;-66
2023/03/02 21:56:48;;;;;;;102.70;60.10;;;;;;;-2.89;82.12;99930.02;449279;1254;144546;-65
2023/03/02 22:06:54;;;;;;;92.20;56.20;;;;;;;-2.63;82.47;99929.58;448520;1254;143096;-65
2023/03/02 22:16:59;;;;;;;99.70;56.60;;;;;;;-2.22;83.48;99925.09;449288;1254;142205;-66
2023/03/02 22:27:21;;;;;;;91.60;51.20;;;;;;;-1.92;83.47;99928.15;449222;1254;142628;-66
2023/03/02 22:37:28;;;;;;;72.40;39.10;;;;;;;-1.62;83.86;99928.60;448565;1254;143812;-65
2023/03/02 22:47:34;;;;;;;78.90;45.80;;;;;;;-1.26;84.04;99919.34;449333;1254;143290;-65
2023/03/02 22:57:42;;;;;;;72.20;43.10;;;;;;;-1.09;83.72;99900.44;449342;1254;145959;-65
2023/03/02 23:07:48;;;;;;;62.50;39.20;;;;;;;-0.92;83.88;99896.45;448926;1254;207976;-66
2023/03/02 23:17:57;;;;;;;53.40;32.00;;;;;;;-0.77;83.59;99896.11;449324;1254;143159;-65
2023/03/02 23:28:02;;;;;;;47.50;27.50;;;;;;;-0.60;83.71;99886.60;446352;1254;143643;-65
2023/03/02 23:38:08;;;;;;;47.40;26.10;;;;;;;-0.47;83.80;99886.08;444964;1254;146502;-66
2023/03/02 23:48:15;;;;;;;47.60;28.50;;;;;;;-0.35;83.68;99889.02;449391;1254;145852;-66
2023/03/02 23:58:21;;;;;;;42.10;25.50;;;;;;;-0.27;83.51;99874.80;448672;1254;142042;-67
